createdAt,value
2022-09-17T00:01:27.212Z,2.10
2022-09-17T00:03:56.685Z,1.63
2022-09-17T00:06:26.007Z,1.67
2022-09-17T00:08:54.804Z,2.28
2022-09-17T00:11:24.539Z,1.67
2022-09-17T00:13:53.468Z,1.70
2022-09-17T00:16:28.607Z,1.50
2022-09-17T00:18:57.462Z,1.60
2022-09-17T00:21:26.787Z,1.15
2022-09-17T00:23:56.410Z,1.42
2022-09-17T00:26:24.647Z,1.33
2022-09-17T00:28:53.053Z,1.75
2022-09-17T00:31:22.002Z,1.92
2022-09-17T00:33:51.758Z,1.77
2022-09-17T00:36:20.584Z,1.40
2022-09-17T00:38:50.467Z,1.50
2022-09-17T00:41:18.690Z,1.42
2022-09-17T00:43:48.418Z,2.03
2022-09-17T00:46:26.539Z,1.40
2022-09-17T00:48:56.780Z,1.60
2022-09-17T00:51:29.554Z,1.45
2022-09-17T00:53:57.864Z,1.70
2022-09-17T00:56:28.903Z,1.50
2022-09-17T00:58:56.883Z,1.27
2022-09-17T01:01:25.229Z,1.23
2022-09-17T01:03:53.241Z,2.17
2022-09-17T01:06:29.352Z,1.98
2022-09-17T01:09:13.242Z,1.27
2022-09-17T01:11:55.675Z,2.42
2022-09-17T01:14:35.355Z,1.85
2022-09-17T01:17:14.060Z,1.80
2022-09-17T01:20:06.347Z,1.77
2022-09-17T01:22:43.559Z,1.13
2022-09-17T01:25:24.954Z,1.80
2022-09-17T01:28:25.657Z,2.00
2022-09-17T01:31:03.328Z,1.77
2022-09-17T01:33:38.306Z,1.48
2022-09-17T01:36:20.171Z,1.90
2022-09-17T01:38:54.278Z,1.55
2022-09-17T01:41:31.014Z,1.67
2022-09-17T01:44:02.831Z,1.30
2022-09-17T01:46:34.351Z,1.48
2022-09-17T01:49:04.174Z,1.20
2022-09-17T01:51:38.094Z,1.20
2022-09-17T01:54:09.199Z,1.08
2022-09-17T01:56:40.169Z,1.13
2022-09-17T01:59:12.722Z,1.50
2022-09-17T02:01:43.326Z,1.33
2022-09-17T02:04:12.851Z,1.17
2022-09-17T02:06:45.687Z,1.35
2022-09-17T02:09:16.472Z,1.50
2022-09-17T02:11:47.643Z,1.30
2022-09-17T02:14:19.865Z,2.45
2022-09-17T02:16:52.327Z,1.40
2022-09-17T02:19:23.647Z,2.10
2022-09-17T02:21:55.310Z,2.20
2022-09-17T02:24:25.723Z,1.27
2022-09-17T02:26:59.697Z,2.10
2022-09-17T02:29:32.817Z,2.28
2022-09-17T02:32:02.709Z,2.47
2022-09-17T02:34:30.756Z,1.83
2022-09-17T02:36:59.577Z,2.40
2022-09-17T02:39:27.935Z,3.05
2022-09-17T02:42:06.602Z,2.35
2022-09-17T02:44:39.877Z,2.17
2022-09-17T02:47:21.201Z,2.60
2022-09-17T02:50:00.380Z,3.85
2022-09-17T02:52:35.495Z,2.72
2022-09-17T02:55:08.427Z,2.58
2022-09-17T03:00:09.435Z,2.92
2022-09-17T03:02:43.355Z,2.72
2022-09-17T03:05:11.836Z,3.30
2022-09-17T03:07:39.941Z,3.28
2022-09-17T03:10:08.546Z,2.45
2022-09-17T03:12:37.207Z,3.45
2022-09-17T03:15:05.955Z,2.67
2022-09-17T03:17:34.022Z,2.97
2022-09-17T03:20:03.503Z,2.55
2022-09-17T03:22:31.329Z,2.05
2022-09-17T03:24:59.168Z,2.83
2022-09-17T03:27:26.986Z,3.03
2022-09-17T03:29:54.820Z,3.75
2022-09-17T03:32:22.641Z,3.72
2022-09-17T03:34:50.448Z,3.28
2022-09-17T03:37:19.638Z,2.60
2022-09-17T03:39:47.497Z,3.33
2022-09-17T03:42:15.378Z,3.38
2022-09-17T03:44:45.434Z,3.55
2022-09-17T03:47:13.490Z,3.58
2022-09-17T03:49:41.374Z,3.40
2022-09-17T03:52:09.191Z,2.67
2022-09-17T03:54:38.316Z,2.75
2022-09-17T03:57:06.183Z,3.72
2022-09-17T03:59:34.019Z,2.95
2022-09-17T04:02:01.916Z,3.10
2022-09-17T04:04:29.801Z,3.03
2022-09-17T04:06:57.610Z,3.90
2022-09-17T04:09:25.617Z,2.58
2022-09-17T04:11:55.948Z,2.58
2022-09-17T04:14:24.539Z,3.65
2022-09-17T04:16:52.328Z,2.45
2022-09-17T04:19:20.119Z,2.83
2022-09-17T04:21:47.962Z,2.97
2022-09-17T04:24:15.760Z,4.40
2022-09-17T04:26:43.831Z,2.78
2022-09-17T04:29:12.988Z,2.80
2022-09-17T04:31:40.844Z,3.95
2022-09-17T04:34:08.778Z,3.70
2022-09-17T04:36:36.650Z,3.80
2022-09-17T04:39:04.724Z,3.35
2022-09-17T04:41:32.625Z,3.20
2022-09-17T04:44:00.433Z,3.28
2022-09-17T04:46:29.605Z,3.40
2022-09-17T04:48:57.571Z,2.05
2022-09-17T04:51:25.520Z,3.22
2022-09-17T04:53:53.401Z,2.70
2022-09-17T04:56:21.673Z,2.83
2022-09-17T04:58:49.586Z,2.83
2022-09-17T05:01:18.776Z,2.90
2022-09-17T05:03:48.102Z,2.00
2022-09-17T05:06:15.939Z,4.32
2022-09-17T05:08:43.707Z,3.28
2022-09-17T05:11:11.597Z,3.10
2022-09-17T05:13:39.431Z,2.95
2022-09-17T05:16:07.328Z,3.28
2022-09-17T05:18:35.238Z,2.42
2022-09-17T05:21:04.753Z,2.60
2022-09-17T05:23:32.550Z,3.08
2022-09-17T05:26:00.928Z,2.65
2022-09-17T05:28:28.998Z,2.53
2022-09-17T05:30:59.940Z,2.65
2022-09-17T05:33:27.941Z,2.47
2022-09-17T05:35:56.047Z,2.25
2022-09-17T05:38:25.381Z,2.40
2022-09-17T05:40:53.373Z,3.35
2022-09-17T05:43:21.395Z,2.50
2022-09-17T05:45:49.381Z,3.55
2022-09-17T05:48:17.344Z,2.97
2022-09-17T05:50:45.207Z,3.08
2022-09-17T05:53:13.951Z,1.75
2022-09-17T05:55:43.387Z,2.40
2022-09-17T05:58:12.643Z,3.00
2022-09-17T06:00:41.708Z,2.70
2022-09-17T06:03:10.392Z,3.05
2022-09-17T06:05:38.392Z,2.15
2022-09-17T06:08:06.704Z,2.38
2022-09-17T06:10:37.244Z,2.17
2022-09-17T06:13:06.530Z,2.28
2022-09-17T06:15:34.343Z,2.13
2022-09-17T06:18:02.220Z,2.88
2022-09-17T06:20:30.038Z,2.08
2022-09-17T06:22:58.450Z,2.22
2022-09-17T06:25:26.800Z,1.88
2022-09-17T06:27:54.649Z,2.03
2022-09-17T06:30:23.859Z,2.60
2022-09-17T06:32:51.676Z,2.60
2022-09-17T06:35:20.499Z,2.78
2022-09-17T06:37:48.917Z,1.67
2022-09-17T06:40:17.668Z,1.85
2022-09-17T06:42:45.593Z,1.48
2022-09-17T06:45:16.691Z,1.75
2022-09-17T06:47:46.408Z,1.73
2022-09-17T06:50:14.337Z,2.10
2022-09-17T06:52:49.115Z,1.90
2022-09-17T06:55:17.161Z,2.00
2022-09-17T06:57:45.198Z,1.70
2022-09-17T07:00:14.213Z,2.08
2022-09-17T07:02:42.052Z,1.50
2022-09-17T07:05:11.471Z,2.00
2022-09-17T07:07:40.771Z,1.90
2022-09-17T07:10:09.599Z,1.75
2022-09-17T07:12:42.936Z,1.58
2022-09-17T07:15:13.834Z,1.30
2022-09-17T07:17:41.690Z,1.77
2022-09-17T07:20:11.950Z,2.30
2022-09-17T07:22:40.066Z,2.20
2022-09-17T07:25:08.763Z,2.65
2022-09-17T07:27:36.609Z,2.20
2022-09-17T07:30:05.338Z,1.83
2022-09-17T07:32:33.285Z,2.80
2022-09-17T07:35:01.068Z,2.80
2022-09-17T07:37:30.284Z,2.00
2022-09-17T07:39:58.244Z,2.45
2022-09-17T07:42:27.392Z,2.47
2022-09-17T07:44:59.837Z,2.33
2022-09-17T07:47:29.803Z,1.92
2022-09-17T07:49:57.693Z,2.03
2022-09-17T07:52:25.653Z,1.73
2022-09-17T07:54:54.839Z,2.45
2022-09-17T07:57:22.632Z,3.47
2022-09-17T07:59:50.506Z,2.33
2022-09-17T08:02:23.252Z,2.70
2022-09-17T08:04:52.017Z,2.45
2022-09-17T08:07:19.855Z,2.08
2022-09-17T08:09:47.708Z,2.13
2022-09-17T08:12:18.298Z,1.95
2022-09-17T08:14:46.168Z,2.90
2022-09-17T08:17:14.010Z,1.98
2022-09-17T08:19:42.865Z,2.20
2022-09-17T08:22:10.649Z,2.38
2022-09-17T08:24:38.464Z,2.25
2022-09-17T08:27:06.525Z,1.67
2022-09-17T08:29:35.734Z,2.30
2022-09-17T08:32:04.567Z,2.22
2022-09-17T08:34:32.616Z,1.75
2022-09-17T08:37:00.515Z,3.60
2022-09-17T08:39:28.319Z,1.80
2022-09-17T08:42:03.323Z,2.67
2022-09-17T08:44:35.270Z,3.53
2022-09-17T08:47:12.545Z,2.60
2022-09-17T08:49:46.476Z,2.35
2022-09-17T08:52:37.624Z,2.22
2022-09-17T08:55:11.570Z,2.92
2022-09-17T08:57:45.665Z,2.30
2022-09-17T09:00:17.109Z,2.28
2022-09-17T09:03:01.305Z,2.65
2022-09-17T09:05:33.208Z,2.17
2022-09-17T09:08:04.434Z,2.20
2022-09-17T09:10:35.608Z,2.03
2022-09-17T09:13:03.451Z,2.65
2022-09-17T09:15:38.219Z,2.28
2022-09-17T09:18:14.360Z,2.15
2022-09-17T09:20:51.563Z,2.95
2022-09-17T09:23:21.877Z,1.88
2022-09-17T09:26:03.252Z,2.45
2022-09-17T09:28:47.668Z,1.67
2022-09-17T09:31:27.898Z,2.65
2022-09-17T09:33:58.507Z,2.00
2022-09-17T09:36:29.649Z,2.08
2022-09-17T09:39:01.698Z,3.05
2022-09-17T09:41:33.786Z,2.10
2022-09-17T09:44:05.270Z,2.22
2022-09-17T09:47:04.712Z,2.15
2022-09-17T09:49:48.351Z,2.40
2022-09-17T09:52:25.763Z,2.10
2022-09-17T09:55:04.762Z,1.90
2022-09-17T09:57:39.171Z,2.28
2022-09-17T10:00:28.892Z,1.95
2022-09-17T10:03:00.809Z,1.85
2022-09-17T10:05:30.231Z,1.60
2022-09-17T10:07:58.358Z,2.42
2022-09-17T10:10:26.166Z,1.42
2022-09-17T10:13:07.451Z,2.25
2022-09-17T10:15:35.367Z,2.88
2022-09-17T10:18:13.597Z,1.73
2022-09-17T10:20:57.503Z,2.00
2022-09-17T10:23:27.789Z,2.08
2022-09-17T10:25:56.591Z,1.77
2022-09-17T10:28:44.830Z,2.10
2022-09-17T10:31:12.739Z,1.38
2022-09-17T10:33:51.476Z,2.00
2022-09-17T10:36:38.071Z,2.08
2022-09-17T10:39:21.169Z,2.28
2022-09-17T10:41:55.190Z,1.88
2022-09-17T10:44:24.506Z,2.00
2022-09-17T10:46:52.593Z,2.28
2022-09-17T10:49:32.237Z,2.00
2022-09-17T10:52:11.403Z,1.50
2022-09-17T10:55:17.634Z,1.88
2022-09-17T10:58:04.314Z,2.42
2022-09-17T11:00:43.714Z,1.75
2022-09-17T11:03:54.367Z,1.13
2022-09-17T11:06:48.220Z,1.67
2022-09-17T11:09:25.709Z,1.58
2022-09-17T11:12:05.739Z,1.88
2022-09-17T11:14:47.026Z,1.50
2022-09-17T11:17:32.296Z,1.60
2022-09-17T11:20:02.712Z,2.08
2022-09-17T11:22:36.742Z,1.75
2022-09-17T11:25:16.909Z,1.90
2022-09-17T11:27:52.643Z,1.40
2022-09-17T11:30:21.745Z,1.90
2022-09-17T11:33:28.684Z,1.35
2022-09-17T11:36:00.234Z,1.27
2022-09-17T11:38:31.453Z,2.22
2022-09-17T11:41:04.373Z,1.30
2022-09-17T11:43:34.752Z,1.00
2022-09-17T11:46:07.181Z,1.75
2022-09-17T11:48:39.491Z,1.15
2022-09-17T11:51:15.876Z,0.93
2022-09-17T11:53:47.131Z,1.13
2022-09-17T11:56:20.311Z,1.20
2022-09-17T11:58:50.997Z,1.05
2022-09-17T12:01:27.098Z,1.00
2022-09-17T12:03:59.291Z,0.80
2022-09-17T12:06:33.519Z,1.30
2022-09-17T12:09:04.244Z,1.00
2022-09-17T12:11:36.016Z,0.75
2022-09-17T12:14:07.534Z,1.15
2022-09-17T12:16:38.866Z,1.13
2022-09-17T12:19:13.865Z,1.35
2022-09-17T12:21:44.852Z,1.60
2022-09-17T12:24:16.727Z,1.00
2022-09-17T12:27:05.714Z,1.80
2022-09-17T12:30:04.780Z,1.50
2022-09-17T12:33:08.541Z,1.50
2022-09-17T12:36:08.730Z,1.30
2022-09-17T12:39:03.101Z,0.93
2022-09-17T12:41:39.650Z,1.23
2022-09-17T12:44:20.545Z,1.48
2022-09-17T12:46:58.719Z,1.17
2022-09-17T12:49:52.085Z,0.93
2022-09-17T12:55:02.927Z,0.93
2022-09-17T12:57:38.328Z,1.05
2022-09-17T13:00:11.836Z,0.73
2022-09-17T13:02:41.589Z,1.02
2022-09-17T13:05:27.784Z,0.70
2022-09-17T13:08:13.110Z,1.00
2022-09-17T13:11:01.383Z,1.02
2022-09-17T13:13:37.929Z,1.13
2022-09-17T13:16:15.560Z,0.88
2022-09-17T13:19:15.043Z,1.30
2022-09-17T13:21:47.278Z,1.42
2022-09-17T13:24:19.037Z,1.10
2022-09-17T13:26:47.298Z,1.23
2022-09-17T13:29:55.970Z,1.98
2022-09-17T13:32:47.664Z,7.15
2022-09-17T13:35:49.155Z,6.60
2022-09-17T13:38:21.681Z,3.70
2022-09-17T13:40:51.833Z,3.10
2022-09-17T13:43:23.955Z,2.10
2022-09-17T13:46:18.668Z,1.83
2022-09-17T13:48:52.423Z,1.77
2022-09-17T13:51:59.867Z,1.75
2022-09-17T13:54:39.024Z,1.02
2022-09-17T13:57:12.883Z,1.50
2022-09-17T13:59:54.948Z,1.20
2022-09-17T14:02:37.287Z,1.30
2022-09-17T14:05:41.815Z,1.90
2022-09-17T14:08:28.639Z,1.65
2022-09-17T14:10:57.913Z,1.58
2022-09-17T14:13:52.798Z,1.42
2022-09-17T14:16:37.175Z,1.25
2022-09-17T14:19:28.478Z,1.10
2022-09-17T14:22:02.068Z,0.60
2022-09-17T14:24:36.606Z,0.65
2022-09-17T14:27:16.643Z,0.40
2022-09-17T14:30:01.406Z,0.50
2022-09-17T14:32:32.357Z,0.75
2022-09-17T14:35:02.115Z,0.52
2022-09-17T14:37:30.571Z,0.70
2022-09-17T14:40:00.339Z,0.85
2022-09-17T14:42:36.816Z,0.50
2022-09-17T14:45:08.974Z,0.65
2022-09-17T14:47:36.876Z,0.47
2022-09-17T14:50:24.848Z,0.40
2022-09-17T14:52:53.816Z,0.60
2022-09-17T14:55:26.453Z,0.30
2022-09-17T14:57:56.452Z,0.60
2022-09-17T15:00:26.190Z,0.30
2022-09-17T15:02:59.420Z,0.40
2022-09-17T15:05:30.289Z,0.65
2022-09-17T15:08:16.560Z,0.30
2022-09-17T15:10:51.004Z,0.50
2022-09-17T15:13:21.853Z,0.50
2022-09-17T15:16:00.374Z,0.32
2022-09-17T15:18:38.349Z,0.47
2022-09-17T15:21:15.084Z,0.95
2022-09-17T15:23:43.712Z,1.13
2022-09-17T15:26:13.600Z,0.88
2022-09-17T15:28:43.675Z,0.70
2022-09-17T15:31:17.142Z,1.67
2022-09-17T15:33:45.310Z,1.60
2022-09-17T15:36:21.123Z,0.98
2022-09-17T15:38:49.780Z,0.70
2022-09-17T15:41:26.515Z,1.02
2022-09-17T15:44:03.767Z,1.00
2022-09-17T15:46:41.587Z,1.48
2022-09-17T15:49:35.213Z,1.10
2022-09-17T15:52:30.408Z,1.20
2022-09-17T15:54:58.384Z,1.10
2022-09-17T15:57:28.619Z,2.30
2022-09-17T15:59:57.029Z,1.10
2022-09-17T16:02:29.737Z,1.88
2022-09-17T16:05:55.759Z,1.58
2022-09-17T16:08:25.537Z,1.45
2022-09-17T16:10:53.544Z,1.85
2022-09-17T16:13:27.932Z,1.50
2022-09-17T16:15:56.678Z,1.20
2022-09-17T16:18:24.512Z,1.77
2022-09-17T16:20:52.362Z,1.30
2022-09-17T16:23:20.203Z,1.73
2022-09-17T16:25:48.125Z,1.30
2022-09-17T16:28:18.265Z,1.50
2022-09-17T16:30:49.144Z,1.60
2022-09-17T16:33:18.480Z,1.55
2022-09-17T16:35:46.435Z,1.50
2022-09-17T16:38:14.314Z,1.70
2022-09-17T16:40:43.292Z,2.13
2022-09-17T16:43:11.338Z,1.70
2022-09-17T16:45:39.213Z,1.38
2022-09-17T16:48:08.838Z,1.30
2022-09-17T16:50:37.227Z,1.52
2022-09-17T16:53:05.573Z,1.55
2022-09-17T16:55:33.537Z,1.90
2022-09-17T16:58:01.383Z,1.70
2022-09-17T17:00:29.368Z,2.00
2022-09-17T17:02:58.196Z,2.08
2022-09-17T17:05:27.786Z,2.38
2022-09-17T17:07:56.170Z,1.85
2022-09-17T17:10:26.513Z,1.40
2022-09-17T17:12:54.419Z,1.23
2022-09-17T17:15:23.532Z,1.15
2022-09-17T17:17:51.566Z,1.20
2022-09-17T17:20:19.779Z,1.00
2022-09-17T17:22:50.641Z,1.23
2022-09-17T17:25:18.750Z,0.82
2022-09-17T17:27:46.604Z,1.17
2022-09-17T17:30:17.228Z,1.00
2022-09-17T17:32:46.569Z,1.10
2022-09-17T17:35:14.431Z,1.17
2022-09-17T17:37:42.330Z,1.20
2022-09-17T17:40:12.058Z,1.20
2022-09-17T17:42:43.802Z,1.00
2022-09-17T17:45:12.346Z,1.17
2022-09-17T17:47:40.216Z,1.42
2022-09-17T17:50:10.514Z,1.35
2022-09-17T17:52:40.199Z,1.10
2022-09-17T17:55:08.988Z,1.73
2022-09-17T17:57:38.425Z,1.30
2022-09-17T18:00:07.822Z,1.50
2022-09-17T18:02:39.954Z,1.08
2022-09-17T18:05:08.567Z,1.30
2022-09-17T18:07:36.512Z,1.40
2022-09-17T18:10:05.412Z,1.25
2022-09-17T18:12:38.347Z,1.35
2022-09-17T18:17:36.742Z,1.50
2022-09-17T18:20:05.438Z,1.65
2022-09-17T18:22:34.321Z,1.60
2022-09-17T18:25:02.176Z,1.70
2022-09-17T18:27:31.882Z,1.40
2022-09-17T18:30:00.191Z,1.48
2022-09-17T18:32:29.419Z,1.58
2022-09-17T18:34:57.316Z,1.48
2022-09-17T18:37:25.193Z,0.70
2022-09-17T18:39:58.346Z,0.90
2022-09-17T18:42:26.644Z,0.95
2022-09-17T18:44:54.661Z,0.75
2022-09-17T18:47:22.562Z,1.13
2022-09-17T18:49:52.019Z,1.38
2022-09-17T18:52:20.022Z,0.88
2022-09-17T18:54:48.117Z,0.93
2022-09-17T18:57:16.239Z,0.82
2022-09-17T18:59:44.212Z,0.70
2022-09-17T19:02:13.109Z,0.70
2022-09-17T19:04:41.165Z,0.45
2022-09-17T19:07:10.446Z,0.63
2022-09-17T19:09:38.271Z,0.73
2022-09-17T19:12:06.154Z,0.52
2022-09-17T19:14:33.972Z,0.60
2022-09-17T19:17:02.019Z,0.80
2022-09-17T19:19:30.087Z,0.57
2022-09-17T19:21:58.024Z,0.80
2022-09-17T19:24:27.416Z,0.88
2022-09-17T19:26:55.497Z,1.10
2022-09-17T19:29:23.814Z,0.90
2022-09-17T19:31:51.746Z,0.95
2022-09-17T19:34:19.667Z,0.90
2022-09-17T19:36:47.549Z,0.80
2022-09-17T19:39:17.679Z,0.50
2022-09-17T19:41:46.986Z,0.80
2022-09-17T19:44:15.191Z,1.00
2022-09-17T19:46:43.293Z,0.80
2022-09-17T19:49:11.355Z,0.73
2022-09-17T19:51:39.334Z,0.60
2022-09-17T19:54:09.482Z,0.73
2022-09-17T19:56:37.345Z,0.95
2022-09-17T19:59:06.651Z,0.80
2022-09-17T20:01:35.115Z,0.98
2022-09-17T20:04:03.479Z,0.75
2022-09-17T20:06:33.570Z,0.90
2022-09-17T20:09:01.576Z,1.00
2022-09-17T20:11:29.429Z,0.93
2022-09-17T20:13:58.437Z,0.73
2022-09-17T20:16:27.786Z,0.60
2022-09-17T20:18:55.647Z,0.82
2022-09-17T20:21:24.930Z,0.80
2022-09-17T20:23:52.930Z,0.52
2022-09-17T20:26:20.974Z,1.00
2022-09-17T20:28:49.978Z,0.60
2022-09-17T20:31:20.182Z,0.50
2022-09-17T20:33:52.495Z,0.50
2022-09-17T20:36:21.694Z,0.90
2022-09-17T20:41:38.949Z,0.70
2022-09-17T20:44:07.955Z,0.70
2022-09-17T20:46:36.128Z,0.70
2022-09-17T20:49:05.659Z,0.60
2022-09-17T20:51:33.915Z,0.70
2022-09-17T20:54:02.133Z,0.50
2022-09-17T20:56:33.025Z,0.57
2022-09-17T20:59:08.265Z,0.80
2022-09-17T21:01:37.637Z,0.70
2022-09-17T21:04:08.531Z,0.40
2022-09-17T21:06:38.256Z,0.88
2022-09-17T21:09:07.278Z,0.50
2022-09-17T21:11:35.369Z,0.63
2022-09-17T21:14:03.839Z,0.60
2022-09-17T21:16:32.426Z,0.68
2022-09-17T21:19:01.715Z,0.47
2022-09-17T21:21:34.297Z,0.63
2022-09-17T21:24:02.969Z,0.40
2022-09-17T21:26:30.887Z,0.57
2022-09-17T21:28:58.776Z,0.50
2022-09-17T21:31:31.959Z,0.70
2022-09-17T21:34:01.716Z,0.55
2022-09-17T21:36:32.687Z,0.60
2022-09-17T21:39:03.627Z,0.63
2022-09-17T21:41:31.963Z,0.73
2022-09-17T21:43:59.938Z,0.43
2022-09-17T21:46:28.983Z,0.30
2022-09-17T21:48:59.841Z,0.38
2022-09-17T21:51:30.868Z,0.50
2022-09-17T21:54:01.421Z,0.35
2022-09-17T21:56:30.137Z,0.57
2022-09-17T21:59:00.115Z,0.50
2022-09-17T22:01:31.067Z,0.55
2022-09-17T22:03:59.348Z,0.77
2022-09-17T22:06:28.901Z,0.45
2022-09-17T22:08:59.852Z,0.70
2022-09-17T22:11:29.935Z,1.00
2022-09-17T22:14:00.718Z,1.13
2022-09-17T22:16:30.689Z,0.80
2022-09-17T22:18:59.635Z,0.73
2022-09-17T22:21:28.921Z,0.90
2022-09-17T22:23:59.891Z,0.70
2022-09-17T22:26:30.109Z,0.60
2022-09-17T22:29:01.516Z,0.93
2022-09-17T22:31:29.437Z,0.70
2022-09-17T22:33:57.283Z,0.80
2022-09-17T22:36:26.546Z,0.85
2022-09-17T22:38:55.989Z,0.80
2022-09-17T22:41:27.509Z,0.68
2022-09-17T22:43:56.904Z,0.82
2022-09-17T22:46:26.654Z,0.80
2022-09-17T22:48:54.510Z,0.60
2022-09-17T22:51:22.547Z,0.50
2022-09-17T22:53:50.564Z,0.63
2022-09-17T22:56:20.064Z,0.90
2022-09-17T22:58:49.942Z,0.90
2022-09-17T23:01:20.107Z,0.88
2022-09-17T23:03:48.863Z,0.90
2022-09-17T23:06:18.160Z,0.98
2022-09-17T23:08:46.059Z,0.88
2022-09-17T23:11:18.249Z,0.88
2022-09-17T23:13:46.155Z,0.70
2022-09-17T23:16:15.836Z,0.85
2022-09-17T23:18:43.788Z,1.17
2022-09-17T23:21:14.263Z,1.30
2022-09-17T23:23:43.360Z,1.17
2022-09-17T23:26:13.367Z,0.63
2022-09-17T23:28:41.413Z,0.90
2022-09-17T23:31:09.978Z,0.70
2022-09-17T23:33:39.426Z,0.68
2022-09-17T23:36:08.684Z,0.93
2022-09-17T23:38:37.070Z,0.82
2022-09-17T23:41:09.730Z,0.73
2022-09-17T23:43:37.589Z,0.52
2022-09-17T23:46:05.843Z,1.23
2022-09-17T23:48:33.910Z,0.82
2022-09-17T23:51:03.540Z,0.90
2022-09-17T23:53:31.919Z,0.90
2022-09-17T23:56:00.521Z,1.10
2022-09-17T23:58:30.432Z,0.90
